Time;durP1;ratioP1;P1;durP2;ratioP2;P2;SDS_P1;SDS_P2;PMS_P1;PMS_P2;Temp;Humidity;BMP_temperature;BMP_pressure;BME280_temperature;BME280_humidity;BME280_pressure;Samples;Min_cycle;Max_cycle;Signal;HPM_P1;HPM_P2
2022/07/10 00:02:05;;;;;;;;;;;14.10;99.90;;;;;;5015776;28;19917;-73
2022/07/10 00:04:31;;;;;;;;;;;14.10;99.90;;;;;;5015584;28;19917;-73
2022/07/10 00:07:01;;;;;;;;;;;14.10;99.90;;;;;;5007544;28;19921;-73
2022/07/10 00:09:28;;;;;;;;;;;14.10;99.90;;;;;;5004257;28;19922;-73
2022/07/10 00:11:53;;;;;;;;;;;14.20;99.90;;;;;;5017886;28;19917;-74
2022/07/10 00:14:20;;;;;;;;;;;14.10;99.90;;;;;;5014021;28;19917;-73
2022/07/10 00:16:45;;;;;;;;;;;14.00;99.90;;;;;;5015879;28;19955;-74
2022/07/10 00:19:11;;;;;;;;;;;13.90;99.90;;;;;;5013359;28;19976;-73
2022/07/10 00:21:36;;;;;;;;;;;13.90;99.90;;;;;;5023943;28;19975;-73
2022/07/10 00:24:02;;;;;;;;;;;13.90;99.90;;;;;;5016505;28;19983;-73
2022/07/10 00:26:28;;;;;;;;;;;13.90;99.90;;;;;;5008786;28;19929;-74
2022/07/10 00:28:54;;;;;;;;;;;13.90;99.90;;;;;;5013896;28;19968;-73
2022/07/10 00:31:20;;;;;;;;;;;14.00;99.90;;;;;;5012777;28;19971;-73
2022/07/10 00:33:46;;;;;;;;;;;14.10;99.90;;;;;;5017504;28;19943;-73
2022/07/10 00:36:11;;;;;;;;;;;14.00;99.90;;;;;;5015564;28;20395;-74
2022/07/10 00:38:37;;;;;;;;;;;14.10;99.90;;;;;;5011398;28;19924;-74
2022/07/10 00:41:02;;;;;;;;;;;14.10;99.90;;;;;;5020158;28;19961;-74
2022/07/10 00:43:28;;;;;;;;;;;14.20;99.90;;;;;;5023883;28;19920;-73
2022/07/10 00:45:54;;;;;;;;;;;14.20;99.90;;;;;;5003310;28;19979;-74
2022/07/10 00:48:19;;;;;;;;;;;14.20;99.90;;;;;;5011910;28;19973;-73
2022/07/10 00:50:45;;;;;;;;;;;14.20;99.90;;;;;;5005312;28;19923;-74
2022/07/10 00:53:14;;;;;;;;;;;14.30;99.90;;;;;;5017500;28;19917;-74
2022/07/10 00:55:41;;;;;;;;;;;14.30;99.90;;;;;;5013077;28;19925;-75
2022/07/10 00:58:07;;;;;;;;;;;14.30;99.90;;;;;;5011768;28;19963;-74
2022/07/10 01:00:33;;;;;;;;;;;14.30;99.90;;;;;;5012526;28;19932;-73
2022/07/10 01:02:58;;;;;;;;;;;14.30;99.90;;;;;;5006732;28;20011;-73
2022/07/10 01:05:24;;;;;;;;;;;14.30;99.90;;;;;;5025076;28;20460;-73
2022/07/10 01:07:50;;;;;;;;;;;14.30;99.90;;;;;;4997505;28;19920;-74
2022/07/10 01:10:15;;;;;;;;;;;14.30;99.90;;;;;;5018169;28;19949;-73
2022/07/10 01:12:41;;;;;;;;;;;14.20;99.90;;;;;;5008780;28;19931;-73
2022/07/10 01:15:07;;;;;;;;;;;14.20;99.90;;;;;;5015752;28;19921;-73
2022/07/10 01:17:33;;;;;;;;;;;14.20;99.90;;;;;;5010738;28;19917;-73
2022/07/10 01:20:03;;;;;;;;;;;14.10;99.90;;;;;;5014588;28;19924;-73
2022/07/10 01:22:29;;;;;;;;;;;14.00;99.90;;;;;;5015369;28;19927;-74
2022/07/10 01:24:54;;;;;;;;;;;14.00;99.90;;;;;;5023976;28;19917;-74
2022/07/10 01:27:20;;;;;;;;;;;13.90;99.90;;;;;;5007124;28;19960;-73
2022/07/10 01:29:45;;;;;;;;;;;13.90;99.90;;;;;;5009506;28;19917;-74
2022/07/10 01:32:11;;;;;;;;;;;13.80;99.90;;;;;;5006380;28;19917;-74
2022/07/10 01:34:37;;;;;;;;;;;13.80;99.90;;;;;;5025380;28;19955;-73
2022/07/10 01:37:02;;;;;;;;;;;13.70;99.90;;;;;;5006679;28;19924;-73
2022/07/10 01:39:28;;;;;;;;;;;13.60;99.90;;;;;;4998990;28;19960;-73
2022/07/10 01:41:53;;;;;;;;;;;13.60;99.90;;;;;;5012039;28;19923;-73
2022/07/10 01:44:19;;;;;;;;;;;13.60;99.90;;;;;;5021569;28;19921;-73
2022/07/10 01:46:45;;;;;;;;;;;13.50;99.90;;;;;;5016060;28;20607;-73
2022/07/10 01:49:11;;;;;;;;;;;13.50;99.90;;;;;;5009169;28;19955;-73
2022/07/10 01:51:36;;;;;;;;;;;13.50;99.90;;;;;;5014098;28;19952;-73
2022/07/10 01:54:02;;;;;;;;;;;13.50;99.90;;;;;;5012557;28;20039;-74
2022/07/10 01:56:27;;;;;;;;;;;13.40;99.90;;;;;;4994183;28;19917;-73
2022/07/10 01:58:53;;;;;;;;;;;13.40;99.90;;;;;;5010404;28;19925;-73
2022/07/10 02:01:18;;;;;;;;;;;13.40;99.90;;;;;;5011309;28;19921;-73
2022/07/10 02:06:29;;;;;;;;;;;13.30;99.90;;;;;;5009655;28;19928;-73
2022/07/10 02:08:54;;;;;;;;;;;13.30;99.90;;;;;;5021190;28;19924;-73
2022/07/10 02:11:20;;;;;;;;;;;13.20;99.90;;;;;;5009956;28;19917;-73
2022/07/10 02:13:46;;;;;;;;;;;13.20;99.90;;;;;;5007567;28;19929;-74
2022/07/10 02:16:11;;;;;;;;;;;13.10;99.90;;;;;;5009934;28;19924;-73
2022/07/10 02:18:38;;;;;;;;;;;13.10;99.90;;;;;;5015999;28;19968;-73
2022/07/10 02:21:04;;;;;;;;;;;13.10;99.90;;;;;;5013177;28;19917;-74
2022/07/10 02:23:29;;;;;;;;;;;13.10;99.90;;;;;;5015330;28;19925;-75
2022/07/10 02:25:55;;;;;;;;;;;13.00;99.90;;;;;;5026641;28;19925;-74
2022/07/10 02:28:21;;;;;;;;;;;13.00;99.90;;;;;;5012293;28;19917;-73
2022/07/10 02:30:46;;;;;;;;;;;13.00;99.90;;;;;;5019076;28;20542;-74
2022/07/10 02:33:12;;;;;;;;;;;12.90;99.90;;;;;;5029095;28;19920;-73
2022/07/10 02:35:37;;;;;;;;;;;12.90;99.90;;;;;;5014470;28;19924;-74
2022/07/10 02:38:03;;;;;;;;;;;12.90;99.90;;;;;;5012597;28;19935;-73
2022/07/10 02:40:29;;;;;;;;;;;12.90;99.90;;;;;;5017835;28;20043;-73
2022/07/10 02:42:54;;;;;;;;;;;12.90;99.90;;;;;;5015086;28;19917;-74
2022/07/10 02:45:20;;;;;;;;;;;12.90;99.90;;;;;;4999192;28;19921;-74
2022/07/10 02:47:45;;;;;;;;;;;12.80;99.90;;;;;;5014673;28;19925;-73
2022/07/10 02:50:11;;;;;;;;;;;12.80;99.90;;;;;;5014027;28;19917;-74
2022/07/10 02:52:37;;;;;;;;;;;12.80;99.90;;;;;;5008331;28;20020;-73
2022/07/10 02:55:02;;;;;;;;;;;12.90;99.90;;;;;;5014907;28;19924;-73
2022/07/10 02:57:28;;;;;;;;;;;12.90;99.90;;;;;;4992150;28;19917;-74
2022/07/10 02:59:53;;;;;;;;;;;12.90;99.90;;;;;;5016025;28;19924;-73
2022/07/10 03:02:19;;;;;;;;;;;12.90;99.90;;;;;;5015816;28;20049;-74
2022/07/10 03:04:44;;;;;;;;;;;12.80;99.90;;;;;;5019581;28;20303;-74
2022/07/10 03:07:10;;;;;;;;;;;12.80;99.90;;;;;;5017697;28;19980;-73
2022/07/10 03:09:36;;;;;;;;;;;12.80;99.90;;;;;;5014027;28;19956;-73
2022/07/10 03:12:01;;;;;;;;;;;12.70;99.90;;;;;;5015730;28;19917;-73
2022/07/10 03:14:27;;;;;;;;;;;12.70;99.90;;;;;;5016288;28;19921;-73
2022/07/10 03:16:52;;;;;;;;;;;12.70;99.90;;;;;;4996391;28;19959;-73
2022/07/10 03:19:18;;;;;;;;;;;12.70;99.90;;;;;;5013204;28;19921;-74
2022/07/10 03:21:44;;;;;;;;;;;12.70;99.90;;;;;;5016085;28;19925;-73
2022/07/10 03:24:10;;;;;;;;;;;12.60;99.90;;;;;;5015223;28;19928;-74
2022/07/10 03:26:35;;;;;;;;;;;12.60;99.90;;;;;;5014790;28;19932;-73
2022/07/10 03:29:01;;;;;;;;;;;12.70;99.90;;;;;;5016276;28;19924;-73
2022/07/10 03:31:26;;;;;;;;;;;12.60;99.90;;;;;;5015539;28;19920;-73
2022/07/10 03:33:52;;;;;;;;;;;12.70;99.90;;;;;;5018803;28;19916;-74
2022/07/10 03:36:18;;;;;;;;;;;12.70;99.90;;;;;;5012131;28;19917;-74
2022/07/10 03:38:45;;;;;;;;;;;12.70;99.90;;;;;;5006717;28;19922;-73
2022/07/10 03:41:11;;;;;;;;;;;12.80;99.90;;;;;;5009924;28;19948;-73
2022/07/10 03:43:36;;;;;;;;;;;12.80;99.90;;;;;;5014722;28;19957;-74
2022/07/10 03:46:02;;;;;;;;;;;12.90;99.90;;;;;;5010329;28;19924;-74
2022/07/10 03:48:27;;;;;;;;;;;12.90;99.90;;;;;;5010265;28;19925;-73
2022/07/10 03:50:53;;;;;;;;;;;13.00;99.90;;;;;;5009910;28;19917;-74
2022/07/10 03:53:19;;;;;;;;;;;13.10;99.90;;;;;;5013410;28;19924;-74
2022/07/10 03:55:45;;;;;;;;;;;13.10;99.90;;;;;;5009079;28;19921;-73
2022/07/10 03:58:10;;;;;;;;;;;13.10;99.90;;;;;;5011517;28;19955;-73
2022/07/10 04:00:38;;;;;;;;;;;13.20;99.90;;;;;;5011639;28;19931;-73
2022/07/10 04:03:05;;;;;;;;;;;13.30;99.90;;;;;;5013717;28;19952;-74
2022/07/10 04:05:30;;;;;;;;;;;13.30;99.90;;;;;;5010251;28;20433;-74
2022/07/10 04:07:57;;;;;;;;;;;13.40;99.90;;;;;;5018526;28;19929;-73
2022/07/10 04:10:22;;;;;;;;;;;13.50;99.90;;;;;;5010562;28;20024;-74
2022/07/10 04:12:48;;;;;;;;;;;13.50;99.90;;;;;;5011896;28;20029;-73
2022/07/10 04:15:14;;;;;;;;;;;13.60;99.90;;;;;;5012947;28;19917;-73
2022/07/10 04:17:40;;;;;;;;;;;13.60;99.90;;;;;;5014467;28;19936;-74
2022/07/10 04:20:05;;;;;;;;;;;13.70;99.90;;;;;;5016825;28;19920;-74
2022/07/10 04:22:31;;;;;;;;;;;13.70;99.90;;;;;;5013489;28;19966;-73
2022/07/10 04:24:57;;;;;;;;;;;13.70;99.90;;;;;;5013168;28;19921;-73
2022/07/10 04:27:22;;;;;;;;;;;13.70;99.90;;;;;;5010658;28;19921;-73
2022/07/10 04:29:48;;;;;;;;;;;13.70;99.90;;;;;;5016526;28;19982;-73
2022/07/10 04:32:14;;;;;;;;;;;13.70;99.90;;;;;;5026147;28;19974;-73
2022/07/10 04:34:39;;;;;;;;;;;13.70;99.90;;;;;;5007507;28;19924;-73
2022/07/10 04:37:07;;;;;;;;;;;13.70;99.90;;;;;;5016310;28;19917;-74
2022/07/10 04:39:33;;;;;;;;;;;13.70;99.90;;;;;;5010571;28;19917;-73
2022/07/10 04:41:59;;;;;;;;;;;13.70;99.90;;;;;;5011736;28;19917;-74
2022/07/10 04:44:24;;;;;;;;;;;13.70;99.90;;;;;;5004299;28;19932;-74
2022/07/10 04:46:50;;;;;;;;;;;13.70;99.90;;;;;;5012318;28;19925;-73
2022/07/10 04:49:16;;;;;;;;;;;13.80;99.90;;;;;;5010570;28;20370;-74
2022/07/10 04:51:41;;;;;;;;;;;13.80;99.90;;;;;;5015604;28;20295;-73
2022/07/10 04:54:07;;;;;;;;;;;13.80;99.90;;;;;;5012177;28;20303;-73
2022/07/10 04:56:33;;;;;;;;;;;13.90;99.90;;;;;;5011368;28;19920;-73
2022/07/10 04:58:58;;;;;;;;;;;13.90;99.90;;;;;;5013194;28;19917;-74
2022/07/10 05:01:24;;;;;;;;;;;14.00;99.90;;;;;;4978553;28;19917;-73
2022/07/10 05:03:49;;;;;;;;;;;14.10;99.90;;;;;;5011930;28;19917;-74
2022/07/10 05:06:15;;;;;;;;;;;14.10;99.90;;;;;;5008818;28;19921;-74
2022/07/10 05:08:40;;;;;;;;;;;14.20;99.90;;;;;;5009894;28;20016;-74
2022/07/10 05:11:06;;;;;;;;;;;14.30;99.90;;;;;;5010926;28;19925;-73
2022/07/10 05:13:31;;;;;;;;;;;14.40;99.90;;;;;;5011544;28;19916;-73
2022/07/10 05:15:57;;;;;;;;;;;14.40;99.90;;;;;;5012259;28;19921;-74
2022/07/10 05:18:22;;;;;;;;;;;14.50;99.90;;;;;;5023141;28;19925;-74
2022/07/10 05:20:49;;;;;;;;;;;14.50;99.90;;;;;;5010588;28;22013;-73
2022/07/10 05:23:15;;;;;;;;;;;14.60;99.90;;;;;;5007901;28;20372;-74
2022/07/10 05:25:40;;;;;;;;;;;14.60;99.90;;;;;;5009986;28;20004;-74
2022/07/10 05:28:06;;;;;;;;;;;14.70;99.90;;;;;;5014522;28;20348;-74
2022/07/10 05:30:32;;;;;;;;;;;14.80;99.90;;;;;;5005795;28;19917;-74
2022/07/10 05:32:58;;;;;;;;;;;14.80;99.90;;;;;;5014313;28;19923;-73
2022/07/10 05:35:23;;;;;;;;;;;14.90;99.90;;;;;;5012911;28;19963;-73
2022/07/10 05:37:49;;;;;;;;;;;15.00;99.90;;;;;;5015584;28;19928;-74
2022/07/10 05:40:14;;;;;;;;;;;15.00;99.90;;;;;;4996271;28;19928;-74
2022/07/10 05:42:40;;;;;;;;;;;15.00;99.90;;;;;;5013769;28;19944;-74
2022/07/10 05:45:06;;;;;;;;;;;15.10;99.90;;;;;;5010545;28;20004;-73
2022/07/10 05:47:33;;;;;;;;;;;15.10;99.90;;;;;;5006436;28;19947;-74
2022/07/10 05:49:59;;;;;;;;;;;15.20;99.90;;;;;;5005125;28;19917;-73
2022/07/10 05:52:24;;;;;;;;;;;15.20;99.90;;;;;;4992309;28;19978;-73
2022/07/10 05:54:50;;;;;;;;;;;15.30;99.90;;;;;;5008177;28;19925;-73
2022/07/10 05:57:16;;;;;;;;;;;15.40;99.90;;;;;;5013793;28;19928;-74
2022/07/10 05:59:42;;;;;;;;;;;15.40;99.90;;;;;;4992558;28;20007;-73
2022/07/10 06:02:08;;;;;;;;;;;15.50;99.90;;;;;;5024226;28;20454;-74
2022/07/10 06:04:34;;;;;;;;;;;15.50;99.90;;;;;;5011231;28;19917;-73
2022/07/10 06:06:59;;;;;;;;;;;15.50;99.90;;;;;;4998708;28;19940;-74
2022/07/10 06:09:25;;;;;;;;;;;15.50;99.90;;;;;;5005626;28;20012;-73
2022/07/10 06:11:51;;;;;;;;;;;15.60;99.90;;;;;;5010587;28;19932;-73
2022/07/10 06:14:16;;;;;;;;;;;15.60;99.90;;;;;;4995715;28;20435;-73
2022/07/10 06:16:42;;;;;;;;;;;15.60;99.90;;;;;;5008388;28;19917;-74
2022/07/10 06:19:07;;;;;;;;;;;15.70;99.90;;;;;;5009301;28;19971;-75
2022/07/10 06:21:33;;;;;;;;;;;15.80;99.90;;;;;;5007418;28;19968;-74
2022/07/10 06:23:58;;;;;;;;;;;15.80;99.90;;;;;;5006989;28;19924;-73
2022/07/10 06:26:24;;;;;;;;;;;15.80;99.90;;;;;;5013048;28;19928;-74
2022/07/10 06:28:50;;;;;;;;;;;15.90;99.90;;;;;;4997813;28;19924;-75
2022/07/10 06:31:15;;;;;;;;;;;15.90;99.90;;;;;;5027119;28;19920;-73
2022/07/10 06:33:41;;;;;;;;;;;16.00;99.90;;;;;;5009158;28;19967;-74
2022/07/10 06:36:07;;;;;;;;;;;16.00;99.90;;;;;;5013131;28;19928;-74
2022/07/10 06:38:33;;;;;;;;;;;16.10;99.90;;;;;;5021524;28;19917;-73
2022/07/10 06:40:59;;;;;;;;;;;16.10;99.90;;;;;;5011289;28;19925;-74
2022/07/10 06:43:24;;;;;;;;;;;16.00;99.90;;;;;;5006965;28;19959;-74
2022/07/10 06:45:50;;;;;;;;;;;16.10;99.90;;;;;;5010845;28;19916;-73
2022/07/10 06:48:16;;;;;;;;;;;16.00;99.90;;;;;;5011767;28;19992;-73
2022/07/10 06:50:42;;;;;;;;;;;16.10;99.90;;;;;;5013419;28;19982;-73
2022/07/10 06:53:07;;;;;;;;;;;16.10;99.90;;;;;;5014922;28;19920;-73
2022/07/10 06:55:33;;;;;;;;;;;16.10;99.90;;;;;;5018309;28;19974;-74
2022/07/10 06:57:59;;;;;;;;;;;16.10;99.90;;;;;;5011987;28;19971;-74
2022/07/10 07:00:25;;;;;;;;;;;16.10;99.90;;;;;;5006899;28;20362;-74
2022/07/10 07:02:51;;;;;;;;;;;16.10;99.90;;;;;;5012910;28;20290;-73
2022/07/10 07:05:16;;;;;;;;;;;16.10;99.90;;;;;;5015395;28;19932;-73
2022/07/10 07:07:42;;;;;;;;;;;16.10;99.90;;;;;;5019206;28;20311;-74
2022/07/10 07:10:08;;;;;;;;;;;16.10;99.90;;;;;;5003249;28;19917;-73
2022/07/10 07:12:34;;;;;;;;;;;16.10;99.90;;;;;;5013180;28;20507;-73
2022/07/10 07:14:59;;;;;;;;;;;16.10;99.90;;;;;;5014677;28;20008;-74
2022/07/10 07:17:33;;;;;;;;;;;16.10;99.90;;;;;;5017034;28;19917;-74
2022/07/10 07:25:27;;;;;;;;;;;16.10;99.90;;;;;;5014978;28;20302;-73
2022/07/10 07:27:53;;;;;;;;;;;16.10;99.90;;;;;;5025470;28;19921;-74
2022/07/10 07:30:18;;;;;;;;;;;16.10;99.90;;;;;;5015899;28;19964;-73
2022/07/10 07:32:45;;;;;;;;;;;16.10;99.90;;;;;;5020848;28;19917;-73
2022/07/10 07:35:11;;;;;;;;;;;16.10;99.90;;;;;;5037977;28;19970;-74
2022/07/10 07:37:41;;;;;;;;;;;16.10;99.90;;;;;;5014959;28;19921;-74
2022/07/10 07:40:11;;;;;;;;;;;16.10;99.90;;;;;;4998313;28;20303;-73
2022/07/10 07:42:37;;;;;;;;;;;16.10;99.90;;;;;;5011600;28;20016;-73
2022/07/10 07:45:03;;;;;;;;;;;16.10;99.90;;;;;;5019289;28;20015;-73
2022/07/10 07:47:29;;;;;;;;;;;16.10;99.90;;;;;;5010227;28;20482;-73
2022/07/10 07:49:55;;;;;;;;;;;16.10;99.90;;;;;;5014770;28;19955;-73
2022/07/10 07:52:22;;;;;;;;;;;16.00;99.90;;;;;;5026264;28;19917;-73
2022/07/10 07:54:48;;;;;;;;;;;16.10;99.90;;;;;;5011584;28;20346;-74
2022/07/10 07:57:14;;;;;;;;;;;16.20;99.90;;;;;;5013472;28;20016;-73
2022/07/10 07:59:39;;;;;;;;;;;16.20;99.90;;;;;;5003041;28;20015;-73
2022/07/10 08:02:05;;;;;;;;;;;16.30;99.90;;;;;;5019806;28;19917;-72
2022/07/10 08:04:30;;;;;;;;;;;16.30;99.90;;;;;;5017239;28;20669;-72
2022/07/10 08:06:56;;;;;;;;;;;16.30;99.90;;;;;;5017768;28;19925;-73
2022/07/10 08:09:22;;;;;;;;;;;16.40;99.90;;;;;;5027098;28;19952;-73
2022/07/10 08:11:47;;;;;;;;;;;16.50;99.90;;;;;;5010863;28;19917;-73
2022/07/10 08:14:14;;;;;;;;;;;16.60;99.90;;;;;;5018278;28;19921;-73
2022/07/10 08:16:40;;;;;;;;;;;16.10;99.90;;;;;;5013826;28;19929;-73
2022/07/10 08:19:06;;;;;;;;;;;16.70;99.90;;;;;;5013576;28;19921;-72
2022/07/10 08:21:32;;;;;;;;;;;16.80;99.90;;;;;;5018267;28;19925;-73
2022/07/10 08:23:58;;;;;;;;;;;16.80;99.90;;;;;;4999627;28;19917;-73
2022/07/10 08:26:24;;;;;;;;;;;16.90;99.90;;;;;;5019913;28;20030;-73
2022/07/10 08:28:49;;;;;;;;;;;16.80;99.90;;;;;;5018133;28;19971;-73
2022/07/10 08:31:15;;;;;;;;;;;16.80;99.90;;;;;;5019291;28;20363;-72
2022/07/10 08:33:41;;;;;;;;;;;16.80;99.90;;;;;;5019881;28;19916;-71
2022/07/10 08:36:06;;;;;;;;;;;16.80;99.90;;;;;;5033298;28;19967;-71
2022/07/10 08:38:32;;;;;;;;;;;16.70;99.90;;;;;;5012290;28;19917;-71
2022/07/10 08:40:58;;;;;;;;;;;16.60;99.90;;;;;;5011913;28;20418;-71
2022/07/10 08:43:24;;;;;;;;;;;16.50;99.90;;;;;;5021822;28;19922;-72
2022/07/10 08:45:53;;;;;;;;;;;16.40;99.90;;;;;;5012545;28;20422;-72
2022/07/10 08:48:23;;;;;;;;;;;16.50;99.90;;;;;;5022046;28;19975;-73
2022/07/10 08:50:51;;;;;;;;;;;16.40;99.90;;;;;;5014972;28;19947;-73
2022/07/10 08:53:30;;;;;;;;;;;16.40;99.90;;;;;;5010028;28;19929;-74
2022/07/10 08:55:56;;;;;;;;;;;16.30;99.90;;;;;;5011144;28;19916;-73
2022/07/10 08:58:22;;;;;;;;;;;16.20;99.90;;;;;;5009237;28;20142;-76
2022/07/10 09:00:47;;;;;;;;;;;16.10;99.90;;;;;;5010347;28;19979;-75
2022/07/10 09:03:13;;;;;;;;;;;16.00;99.90;;;;;;5011024;28;20395;-73
2022/07/10 09:05:38;;;;;;;;;;;16.00;99.90;;;;;;4997455;28;19975;-73
2022/07/10 09:08:20;;;;;;;;;;;15.90;99.90;;;;;;5014122;28;19921;-73
2022/07/10 09:10:46;;;;;;;;;;;15.90;99.90;;;;;;5014658;28;20000;-73
2022/07/10 09:13:11;;;;;;;;;;;15.90;99.90;;;;;;5031572;28;20007;-73
2022/07/10 09:15:37;;;;;;;;;;;16.00;99.90;;;;;;5013099;28;20339;-74
2022/07/10 09:18:05;;;;;;;;;;;16.10;99.90;;;;;;5007574;28;20299;-74
2022/07/10 09:20:40;;;;;;;;;;;16.20;99.90;;;;;;5016660;28;20003;-74
2022/07/10 09:23:10;;;;;;;;;;;16.30;99.90;;;;;;5012211;28;19936;-81
2022/07/10 09:25:39;;;;;;;;;;;16.50;99.90;;;;;;5004102;28;19917;-83
2022/07/10 09:28:48;;;;;;;;;;;16.70;99.90;;;;;;4976371;28;20410;-82
2022/07/10 09:31:13;;;;;;;;;;;16.70;99.90;;;;;;4970934;28;19968;-83
2022/07/10 09:33:39;;;;;;;;;;;16.90;99.90;;;;;;4994866;28;19975;-82
2022/07/10 09:36:10;;;;;;;;;;;17.00;99.90;;;;;;5006208;28;19917;-81
2022/07/10 09:38:39;;;;;;;;;;;17.10;99.90;;;;;;5014860;28;19917;-81
2022/07/10 09:41:23;;;;;;;;;;;17.20;99.90;;;;;;5023450;28;19916;-81
2022/07/10 09:44:00;;;;;;;;;;;17.30;99.90;;;;;;4993690;28;19955;-81
2022/07/10 09:46:28;;;;;;;;;;;17.40;99.90;;;;;;5022971;28;19928;-81
2022/07/10 09:49:26;;;;;;;;;;;17.40;99.90;;;;;;5001665;28;19917;-84
2022/07/10 09:51:54;;;;;;;;;;;17.40;99.90;;;;;;4989641;28;20275;-81
2022/07/10 09:54:21;;;;;;;;;;;17.40;99.90;;;;;;4993896;28;19917;-82
2022/07/10 09:56:53;;;;;;;;;;;17.40;99.90;;;;;;5005574;28;19927;-81
2022/07/10 09:59:20;;;;;;;;;;;17.40;99.90;;;;;;4985241;28;19924;-82
2022/07/10 10:01:46;;;;;;;;;;;17.50;99.90;;;;;;5007455;28;19928;-82
2022/07/10 10:04:13;;;;;;;;;;;17.50;99.90;;;;;;4993977;28;19971;-82
2022/07/10 10:06:58;;;;;;;;;;;17.50;99.90;;;;;;4980036;28;19976;-83
2022/07/10 10:09:29;;;;;;;;;;;17.40;99.90;;;;;;5018433;28;20011;-84
2022/07/10 10:12:02;;;;;;;;;;;17.40;99.90;;;;;;5013244;28;20004;-85
2022/07/10 10:14:34;;;;;;;;;;;17.30;99.90;;;;;;4991947;28;20000;-83
2022/07/10 10:17:00;;;;;;;;;;;17.20;99.90;;;;;;4979891;28;19921;-83
2022/07/10 10:22:11;;;;;;;;;;;17.30;99.90;;;;;;5008851;28;19924;-79
2022/07/10 10:24:38;;;;;;;;;;;17.30;99.90;;;;;;5012543;28;19921;-78
2022/07/10 10:27:05;;;;;;;;;;;17.40;99.90;;;;;;4997202;28;21751;-77
2022/07/10 10:29:31;;;;;;;;;;;17.50;99.90;;;;;;5005081;28;19920;-77
2022/07/10 10:31:56;;;;;;;;;;;17.60;99.90;;;;;;5012219;28;19943;-75
2022/07/10 10:34:42;;;;;;;;;;;17.70;99.90;;;;;;5012783;28;19917;-82
2022/07/10 10:37:32;;;;;;;;;;;17.80;99.90;;;;;;4999720;28;19917;-82
2022/07/10 10:39:57;;;;;;;;;;;17.80;99.90;;;;;;4995290;28;19917;-82
2022/07/10 10:42:34;;;;;;;;;;;17.70;99.90;;;;;;5025287;28;19923;-82
2022/07/10 10:45:18;;;;;;;;;;;17.70;99.90;;;;;;5005420;28;20027;-82
2022/07/10 10:48:00;;;;;;;;;;;17.80;99.90;;;;;;5001761;28;19921;-84
2022/07/10 10:50:37;;;;;;;;;;;18.00;99.90;;;;;;5012832;28;19931;-83
2022/07/10 10:53:03;;;;;;;;;;;18.20;99.90;;;;;;4986200;28;19918;-84
2022/07/10 10:55:29;;;;;;;;;;;18.40;99.90;;;;;;5004689;28;20447;-84
2022/07/10 10:58:11;;;;;;;;;;;18.40;99.90;;;;;;4999330;28;19968;-84
2022/07/10 11:00:37;;;;;;;;;;;18.60;99.90;;;;;;5007044;28;20009;-84
2022/07/10 11:03:13;;;;;;;;;;;18.70;99.90;;;;;;4994265;28;19971;-83
2022/07/10 11:05:41;;;;;;;;;;;18.80;99.90;;;;;;4994022;28;19953;-84
2022/07/10 11:08:07;;;;;;;;;;;18.80;99.90;;;;;;5011668;28;19976;-84
2022/07/10 11:10:39;;;;;;;;;;;18.80;99.90;;;;;;4980380;28;20276;-82
2022/07/10 11:13:08;;;;;;;;;;;18.90;99.90;;;;;;4981264;28;19931;-76
2022/07/10 11:15:35;;;;;;;;;;;18.90;99.90;;;;;;5025626;28;19979;-75
2022/07/10 11:18:09;;;;;;;;;;;18.90;99.90;;;;;;4991193;28;20011;-75
2022/07/10 11:20:36;;;;;;;;;;;19.00;99.90;;;;;;5011728;28;20003;-75
2022/07/10 11:23:20;;;;;;;;;;;19.10;99.90;;;;;;5017299;28;19933;-76
2022/07/10 11:26:00;;;;;;;;;;;19.20;99.90;;;;;;5014906;28;19962;-77
2022/07/10 11:28:32;;;;;;;;;;;19.10;99.90;;;;;;5018739;28;20562;-75
2022/07/10 11:30:57;;;;;;;;;;;19.00;99.90;;;;;;5021300;28;19948;-76
2022/07/10 11:33:23;;;;;;;;;;;18.90;99.90;;;;;;5017632;28;19952;-75
2022/07/10 11:35:52;;;;;;;;;;;18.80;99.90;;;;;;5020362;28;19924;-75
2022/07/10 11:38:25;;;;;;;;;;;18.90;99.90;;;;;;5021009;28;20402;-75
2022/07/10 11:40:53;;;;;;;;;;;19.00;99.90;;;;;;5018267;28;19925;-74
2022/07/10 11:43:22;;;;;;;;;;;19.10;99.90;;;;;;5019669;28;19921;-74
2022/07/10 11:45:47;;;;;;;;;;;19.40;99.90;;;;;;5018441;28;19921;-74
2022/07/10 11:48:17;;;;;;;;;;;19.60;99.90;;;;;;5008960;28;19927;-75
2022/07/10 11:50:43;;;;;;;;;;;19.50;99.90;;;;;;5001233;28;19947;-74
2022/07/10 11:53:08;;;;;;;;;;;19.50;99.90;;;;;;5021213;28;19917;-75
2022/07/10 11:55:36;;;;;;;;;;;19.30;99.90;;;;;;5018180;28;19932;-75
2022/07/10 11:58:18;;;;;;;;;;;19.10;99.90;;;;;;5012524;28;19927;-75
2022/07/10 12:00:43;;;;;;;;;;;19.00;99.90;;;;;;5012501;28;20006;-74
2022/07/10 12:03:16;;;;;;;;;;;19.00;99.90;;;;;;5006812;28;20004;-74
2022/07/10 12:05:42;;;;;;;;;;;19.00;99.90;;;;;;5024777;28;20299;-74
2022/07/10 12:08:07;;;;;;;;;;;18.90;99.90;;;;;;5011573;28;19925;-74
2022/07/10 12:10:34;;;;;;;;;;;18.90;99.90;;;;;;5014712;28;19917;-74
2022/07/10 12:13:07;;;;;;;;;;;19.10;99.90;;;;;;5010481;28;19939;-73
2022/07/10 12:15:32;;;;;;;;;;;19.20;99.90;;;;;;5014668;28;20399;-74
2022/07/10 12:17:58;;;;;;;;;;;19.30;99.90;;;;;;5011090;28;19917;-74
2022/07/10 12:20:24;;;;;;;;;;;19.30;99.90;;;;;;5014303;28;19923;-74
2022/07/10 12:22:50;;;;;;;;;;;20.00;99.90;;;;;;5021843;28;20396;-73
2022/07/10 12:25:15;;;;;;;;;;;19.20;99.90;;;;;;5017612;28;19931;-74
2022/07/10 12:27:41;;;;;;;;;;;19.10;99.90;;;;;;5013640;28;19921;-74
2022/07/10 12:30:07;;;;;;;;;;;19.00;99.90;;;;;;5018541;28;19943;-74
2022/07/10 12:32:32;;;;;;;;;;;18.90;99.90;;;;;;5015177;28;19917;-74
2022/07/10 12:34:58;;;;;;;;;;;19.00;99.90;;;;;;5026795;28;19917;-74
2022/07/10 12:37:24;;;;;;;;;;;18.90;99.90;;;;;;5008499;28;19920;-74
2022/07/10 12:39:53;;;;;;;;;;;18.90;99.90;;;;;;5009688;28;19999;-73
2022/07/10 12:42:31;;;;;;;;;;;18.90;99.90;;;;;;5008997;28;20555;-74
2022/07/10 12:45:10;;;;;;;;;;;18.80;99.90;;;;;;5011631;28;20457;-74
2022/07/10 12:47:46;;;;;;;;;;;18.70;99.90;;;;;;5013448;28;20342;-74
2022/07/10 12:50:12;;;;;;;;;;;18.80;99.90;;;;;;5012758;28;19917;-74
2022/07/10 12:52:38;;;;;;;;;;;18.80;99.90;;;;;;5013135;28;21336;-74
2022/07/10 12:55:11;;;;;;;;;;;18.90;99.90;;;;;;5014101;28;20284;-74
2022/07/10 12:57:46;;;;;;;;;;;18.90;99.90;;;;;;5015719;28;20311;-74
2022/07/10 13:00:13;;;;;;;;;;;19.00;99.90;;;;;;5012256;28;20287;-74
2022/07/10 13:02:39;;;;;;;;;;;19.00;99.90;;;;;;5012936;28;20389;-74
2022/07/10 13:05:04;;;;;;;;;;;19.00;99.90;;;;;;5014840;28;20047;-74
2022/07/10 13:07:34;;;;;;;;;;;18.90;99.90;;;;;;5015377;28;19921;-74
2022/07/10 13:10:00;;;;;;;;;;;18.90;99.90;;;;;;5012613;28;19917;-74
2022/07/10 13:12:26;;;;;;;;;;;18.90;99.90;;;;;;5032428;28;19924;-74
2022/07/10 13:14:52;;;;;;;;;;;18.90;99.90;;;;;;5013496;28;19917;-74
2022/07/10 13:17:17;;;;;;;;;;;19.00;99.90;;;;;;5014320;28;19924;-74
2022/07/10 13:19:43;;;;;;;;;;;19.00;99.90;;;;;;5015210;28;19924;-74
2022/07/10 13:22:08;;;;;;;;;;;19.00;99.90;;;;;;5013943;28;19917;-73
2022/07/10 13:24:34;;;;;;;;;;;19.10;99.90;;;;;;5017431;28;20384;-74
2022/07/10 13:27:00;;;;;;;;;;;19.20;99.90;;;;;;5002399;28;20443;-74
2022/07/10 13:29:25;;;;;;;;;;;19.30;99.90;;;;;;5005371;28;19921;-74
2022/07/10 13:31:51;;;;;;;;;;;19.40;99.90;;;;;;5021636;28;20311;-74
2022/07/10 13:34:17;;;;;;;;;;;19.40;99.90;;;;;;5001751;28;20390;-75
2022/07/10 13:36:42;;;;;;;;;;;19.20;99.90;;;;;;5010936;28;19967;-75
2022/07/10 13:39:08;;;;;;;;;;;19.10;99.90;;;;;;5009209;28;20391;-75
2022/07/10 13:41:34;;;;;;;;;;;19.00;99.90;;;;;;4992782;28;20430;-75
2022/07/10 13:44:01;;;;;;;;;;;19.00;99.90;;;;;;5019246;28;19932;-76
2022/07/10 13:46:27;;;;;;;;;;;19.00;99.90;;;;;;5003375;28;20019;-77
2022/07/10 13:48:52;;;;;;;;;;;19.00;99.90;;;;;;5022231;28;20412;-75
2022/07/10 13:51:18;;;;;;;;;;;19.00;99.90;;;;;;5004676;28;20389;-75
2022/07/10 13:53:43;;;;;;;;;;;19.00;99.90;;;;;;5006006;28;19917;-75
2022/07/10 13:56:09;;;;;;;;;;;18.90;99.90;;;;;;4993153;28;20291;-75
2022/07/10 13:58:36;;;;;;;;;;;18.90;99.90;;;;;;5003530;28;19920;-76
2022/07/10 14:01:03;;;;;;;;;;;18.90;99.90;;;;;;5010866;28;19972;-76
2022/07/10 14:03:30;;;;;;;;;;;18.90;99.90;;;;;;4998990;28;19917;-76
2022/07/10 14:05:56;;;;;;;;;;;18.90;99.90;;;;;;5019287;28;19924;-75
2022/07/10 14:08:21;;;;;;;;;;;18.90;99.90;;;;;;5006377;28;20281;-76
2022/07/10 14:10:47;;;;;;;;;;;19.00;99.90;;;;;;5010058;28;20026;-75
2022/07/10 14:13:13;;;;;;;;;;;19.00;99.90;;;;;;5013139;28;19943;-75
2022/07/10 14:15:38;;;;;;;;;;;19.10;99.90;;;;;;5013524;28;19924;-76
2022/07/10 14:18:04;;;;;;;;;;;19.30;99.90;;;;;;5013667;28;19960;-76
2022/07/10 14:21:02;;;;;;;;;;;19.30;99.90;;;;;;5012251;28;19928;-75
2022/07/10 14:23:16;;;;;;;;;;;19.40;99.90;;;;;;4994401;28;19925;-76
2022/07/10 14:25:42;;;;;;;;;;;19.50;99.90;;;;;;5009312;28;19963;-76
2022/07/10 14:28:08;;;;;;;;;;;19.60;99.90;;;;;;5015521;28;19921;-75